Terminal Aerodrome Forecast
Issued by NWS

Home | Current Version | Previous Version | Text Only | Print | Product List | Glossary On
Versions: 1 2 3 4 5 6 7 8 9 10 11 12 13 14 15 16 17 18
000
FTUS43 KDVN 260400 AAB
TAFCID
TAF AMD
KCID 260415Z 2604/2624 32013G22KT P6SM BKN035
     FM260800 31011KT P6SM SCT035 BKN200
     FM261500 32013G20KT P6SM SCT025 SCT200=

USA.gov is the U.S. government's official web portal to all federal, state and local government web resources and services.